Time;durP1;ratioP1;P1;durP2;ratioP2;P2;SDS_P1;SDS_P2;PMS_P1;PMS_P2;Temp;Humidity;BMP_temperature;BMP_pressure;BME280_temperature;BME280_humidity;BME280_pressure;Samples;Min_cycle;Max_cycle;Signal;HPM_P1;HPM_P2
2023/03/24 00:00:31;;;;;;;10.85;4.53;;;;;;;;;;4943680;29;20039;-81
2023/03/24 00:03:00;;;;;;;11.05;4.32;;;;;;;;;;4960334;29;20027;-81
2023/03/24 00:05:27;;;;;;;9.45;4.05;;;;;;;;;;4960642;29;20126;-81
2023/03/24 00:07:53;;;;;;;8.68;4.00;;;;;;;;;;4960303;29;20015;-81
2023/03/24 00:10:21;;;;;;;12.93;4.95;;;;;;;;;;4960097;29;20037;-81
2023/03/24 00:12:47;;;;;;;9.13;4.13;;;;;;;;;;4943282;29;20023;-81
2023/03/24 00:15:15;;;;;;;9.02;4.20;;;;;;;;;;4960035;29;20115;-81
2023/03/24 00:17:41;;;;;;;11.40;5.28;;;;;;;;;;4942146;29;20034;-81
2023/03/24 00:20:13;;;;;;;9.85;4.38;;;;;;;;;;4959762;29;20023;-81
2023/03/24 00:22:41;;;;;;;10.82;4.40;;;;;;;;;;4960065;29;20482;-81
2023/03/24 00:25:08;;;;;;;8.70;3.92;;;;;;;;;;4943100;29;20035;-80
2023/03/24 00:27:35;;;;;;;7.68;4.32;;;;;;;;;;4943648;29;20507;-80
2023/03/24 00:30:02;;;;;;;11.23;4.13;;;;;;;;;;4961885;29;20027;-81
2023/03/24 00:32:29;;;;;;;12.13;4.32;;;;;;;;;;4969363;29;20050;-81
2023/03/24 00:34:59;;;;;;;8.88;4.13;;;;;;;;;;4977172;29;20051;-81
2023/03/24 00:37:25;;;;;;;9.88;5.20;;;;;;;;;;4975818;29;20047;-81
2023/03/24 00:39:52;;;;;;;10.18;4.07;;;;;;;;;;4974525;29;20041;-81
2023/03/24 00:42:17;;;;;;;8.40;4.13;;;;;;;;;;4969007;29;20051;-81
2023/03/24 00:44:43;;;;;;;9.32;4.00;;;;;;;;;;4968940;29;20059;-82
2023/03/24 00:47:10;;;;;;;7.40;3.65;;;;;;;;;;4950164;29;20019;-82
2023/03/24 00:49:43;;;;;;;9.20;4.30;;;;;;;;;;4968244;29;20034;-82
2023/03/24 00:52:19;;;;;;;12.45;4.68;;;;;;;;;;4967479;29;20019;-81
2023/03/24 00:54:46;;;;;;;6.63;3.83;;;;;;;;;;4966985;29;20422;-81
2023/03/24 00:57:13;;;;;;;8.25;4.40;;;;;;;;;;4948345;29;20090;-82
2023/03/24 00:59:47;;;;;;;8.55;3.80;;;;;;;;;;4966377;29;20015;-81
2023/03/24 01:02:15;;;;;;;7.20;4.28;;;;;;;;;;4949487;29;20038;-81
2023/03/24 01:04:46;;;;;;;6.72;3.83;;;;;;;;;;4966626;29;20740;-81
2023/03/24 01:07:12;;;;;;;8.30;4.13;;;;;;;;;;4949115;29;20035;-81
2023/03/24 01:09:39;;;;;;;8.73;4.00;;;;;;;;;;4966407;29;20081;-81
2023/03/24 01:12:05;;;;;;;7.45;4.05;;;;;;;;;;4965943;29;20039;-82
2023/03/24 01:14:32;;;;;;;8.63;4.05;;;;;;;;;;4967040;29;20035;-82
2023/03/24 01:16:59;;;;;;;5.88;3.78;;;;;;;;;;4965996;29;20426;-81
2023/03/24 01:19:25;;;;;;;9.25;4.15;;;;;;;;;;4965244;29;20023;-81
2023/03/24 01:21:53;;;;;;;5.82;4.38;;;;;;;;;;4966143;29;20405;-81
2023/03/24 01:24:19;;;;;;;9.77;4.13;;;;;;;;;;4948442;29;20054;-82
2023/03/24 01:26:45;;;;;;;9.05;3.95;;;;;;;;;;4948724;29;20039;-81
2023/03/24 01:29:11;;;;;;;9.20;4.57;;;;;;;;;;4965791;29;20027;-81
2023/03/24 01:31:38;;;;;;;6.93;4.00;;;;;;;;;;4959529;29;20106;-81
2023/03/24 01:34:04;;;;;;;5.95;3.70;;;;;;;;;;4958937;29;20389;-81
2023/03/24 01:36:30;;;;;;;8.27;4.03;;;;;;;;;;4945673;29;20027;-81
2023/03/24 01:38:59;;;;;;;9.68;4.40;;;;;;;;;;4963784;29;20030;-82
2023/03/24 01:41:27;;;;;;;8.15;4.47;;;;;;;;;;4963359;29;20113;-81
2023/03/24 01:43:53;;;;;;;7.22;3.80;;;;;;;;;;4964112;29;20034;-81
2023/03/24 01:46:20;;;;;;;7.38;4.43;;;;;;;;;;4965110;29;20027;-81
2023/03/24 01:48:46;;;;;;;7.28;4.35;;;;;;;;;;4965164;29;20054;-81
2023/03/24 01:51:25;;;;;;;8.15;4.15;;;;;;;;;;4964721;29;20385;-81
2023/03/24 01:54:02;;;;;;;7.22;4.00;;;;;;;;;;4965333;29;20035;-81
2023/03/24 01:56:28;;;;;;;9.30;4.60;;;;;;;;;;4965436;29;20031;-81
2023/03/24 01:59:03;;;;;;;6.57;4.25;;;;;;;;;;4946241;29;20034;-81
2023/03/24 02:01:29;;;;;;;7.10;4.53;;;;;;;;;;4946150;29;20363;-81
2023/03/24 02:04:02;;;;;;;9.20;4.30;;;;;;;;;;4963881;29;20039;-81
2023/03/24 02:06:28;;;;;;;8.48;4.45;;;;;;;;;;4964253;29;20019;-81
2023/03/24 02:08:55;;;;;;;7.68;4.85;;;;;;;;;;4963278;28;20094;-81
2023/03/24 02:11:22;;;;;;;8.38;4.13;;;;;;;;;;4963365;29;20031;-81
2023/03/24 02:13:48;;;;;;;7.10;4.35;;;;;;;;;;4946275;29;20027;-81
2023/03/24 02:16:19;;;;;;;7.55;3.78;;;;;;;;;;4963065;29;20023;-82
2023/03/24 02:18:53;;;;;;;9.63;4.88;;;;;;;;;;4963395;29;20055;-81
2023/03/24 02:21:55;;;;;;;6.10;4.50;;;;;;;;;;4945958;29;20031;-81
2023/03/24 02:24:36;;;;;;;9.07;4.32;;;;;;;;;;4885214;29;20068;-81
2023/03/24 02:27:15;;;;;;;10.75;4.78;;;;;;;;;;4956280;29;20046;-81
2023/03/24 02:30:01;;;;;;;7.82;4.82;;;;;;;;;;4944933;29;20038;-81
2023/03/24 02:32:33;;;;;;;7.63;4.13;;;;;;;;;;4963136;29;20071;-81
2023/03/24 02:35:02;;;;;;;6.47;3.38;;;;;;;;;;4962460;29;20405;-81
2023/03/24 02:37:38;;;;;;;7.18;4.53;;;;;;;;;;4945221;29;20035;-82
2023/03/24 02:40:10;;;;;;;5.95;3.22;;;;;;;;;;4946284;29;20035;-81
2023/03/24 02:42:42;;;;;;;8.52;4.55;;;;;;;;;;4949905;29;20513;-82
2023/03/24 02:45:08;;;;;;;6.38;2.80;;;;;;;;;;4945187;29;20035;-81
2023/03/24 02:47:42;;;;;;;7.22;2.42;;;;;;;;;;4926031;29;20434;-81
2023/03/24 02:50:27;;;;;;;6.00;1.90;;;;;;;;;;4944793;29;20028;-81
2023/03/24 02:53:12;;;;;;;7.72;1.60;;;;;;;;;;4944170;29;20096;-81
2023/03/24 02:55:43;;;;;;;5.90;1.30;;;;;;;;;;4944212;29;20398;-81
2023/03/24 02:58:22;;;;;;;6.00;1.50;;;;;;;;;;4926548;29;20126;-81
2023/03/24 03:00:58;;;;;;;3.53;1.50;;;;;;;;;;4927086;29;20042;-81
2023/03/24 03:03:33;;;;;;;6.10;1.83;;;;;;;;;;4926214;29;20095;-81
2023/03/24 03:06:20;;;;;;;7.10;1.60;;;;;;;;;;4961686;29;20052;-81
2023/03/24 03:08:47;;;;;;;4.72;1.45;;;;;;;;;;4944413;29;20035;-81
2023/03/24 03:11:17;;;;;;;7.65;1.90;;;;;;;;;;4962503;29;20028;-80
2023/03/24 03:13:55;;;;;;;5.10;1.50;;;;;;;;;;4962897;28;20047;-81
2023/03/24 03:16:24;;;;;;;6.00;1.30;;;;;;;;;;4963569;29;20043;-81
2023/03/24 03:18:59;;;;;;;6.88;1.40;;;;;;;;;;4963525;29;20474;-81
2023/03/24 03:21:28;;;;;;;5.93;1.20;;;;;;;;;;4964721;28;20028;-81
2023/03/24 03:23:57;;;;;;;10.25;1.50;;;;;;;;;;4966982;29;20401;-80
2023/03/24 03:26:27;;;;;;;6.38;2.17;;;;;;;;;;4967099;29;20489;-80
2023/03/24 03:28:59;;;;;;;6.03;1.40;;;;;;;;;;4966966;28;20047;-81
2023/03/24 03:31:30;;;;;;;6.15;1.48;;;;;;;;;;4966460;28;20019;-80
2023/03/24 03:34:05;;;;;;;7.80;1.60;;;;;;;;;;4948622;29;20086;-80
2023/03/24 03:36:40;;;;;;;10.38;1.40;;;;;;;;;;4965438;29;20669;-81
2023/03/24 03:39:10;;;;;;;6.97;1.50;;;;;;;;;;4949214;29;20055;-81
2023/03/24 03:41:36;;;;;;;9.30;1.70;;;;;;;;;;4966606;29;20066;-81
2023/03/24 03:44:02;;;;;;;9.65;1.60;;;;;;;;;;4967633;28;20039;-81
2023/03/24 03:46:28;;;;;;;8.10;1.20;;;;;;;;;;4949621;29;20382;-81
2023/03/24 03:48:55;;;;;;;7.97;1.70;;;;;;;;;;4965534;29;20034;-81
2023/03/24 03:51:20;;;;;;;11.82;1.73;;;;;;;;;;4966182;28;20054;-80
2023/03/24 03:53:52;;;;;;;6.05;1.20;;;;;;;;;;4967298;29;20019;-80
2023/03/24 03:56:19;;;;;;;9.40;1.52;;;;;;;;;;4948767;29;20023;-80
2023/03/24 03:58:47;;;;;;;7.70;1.45;;;;;;;;;;4948373;29;20032;-80
2023/03/24 04:01:15;;;;;;;6.95;1.50;;;;;;;;;;4965848;28;20039;-80
2023/03/24 04:03:43;;;;;;;9.48;1.52;;;;;;;;;;4965285;29;20034;-80
2023/03/24 04:06:18;;;;;;;7.10;1.50;;;;;;;;;;4965484;29;20410;-80
2023/03/24 04:08:47;;;;;;;10.70;2.03;;;;;;;;;;4948338;29;20033;-80
2023/03/24 04:11:13;;;;;;;8.02;1.80;;;;;;;;;;4964910;29;20430;-80
2023/03/24 04:13:44;;;;;;;13.60;2.28;;;;;;;;;;4965890;29;20032;-80
2023/03/24 04:16:09;;;;;;;;;;;;;;;;;;4966171;29;20027;-80
2023/03/24 04:19:14;;;;;;;9.45;1.77;;;;;;;;;;4965317;29;20280;-80
2023/03/24 04:21:50;;;;;;;14.18;3.25;;;;;;;;;;4867294;29;20022;-80
2023/03/24 04:24:42;;;;;;;10.57;2.47;;;;;;;;;;4867736;29;20046;-79
2023/03/24 04:27:25;;;;;;;9.75;2.08;;;;;;;;;;4936328;29;20035;-80
2023/03/24 04:30:13;;;;;;;8.43;1.95;;;;;;;;;;4965260;28;20035;-79
2023/03/24 04:32:46;;;;;;;16.98;2.33;;;;;;;;;;4964699;28;20717;-80
2023/03/24 04:35:25;;;;;;;10.68;2.00;;;;;;;;;;4960165;29;20438;-79
2023/03/24 04:37:51;;;;;;;9.13;1.98;;;;;;;;;;4959380;29;20447;-80
2023/03/24 04:40:19;;;;;;;7.28;1.67;;;;;;;;;;4944175;29;20030;-80
2023/03/24 04:42:51;;;;;;;7.40;1.42;;;;;;;;;;4937031;29;20067;-80
2023/03/24 04:45:17;;;;;;;13.45;2.33;;;;;;;;;;4923434;29;20455;-79
2023/03/24 04:47:46;;;;;;;9.10;1.80;;;;;;;;;;4921308;29;20096;-80
2023/03/24 04:50:33;;;;;;;11.30;1.85;;;;;;;;;;4923207;29;20035;-80
2023/03/24 04:52:59;;;;;;;8.73;1.50;;;;;;;;;;4922680;29;20024;-80
2023/03/24 04:55:39;;;;;;;9.77;2.03;;;;;;;;;;4923243;29;20035;-80
2023/03/24 04:58:05;;;;;;;6.65;1.73;;;;;;;;;;4921636;29;20032;-79
2023/03/24 05:00:31;;;;;;;14.23;1.92;;;;;;;;;;4922429;29;20546;-80
2023/03/24 05:02:57;;;;;;;9.98;1.88;;;;;;;;;;4920918;29;20052;-80
2023/03/24 05:05:23;;;;;;;9.13;1.80;;;;;;;;;;4921852;29;20075;-80
2023/03/24 05:07:49;;;;;;;12.43;2.00;;;;;;;;;;4922734;29;20048;-80
2023/03/24 05:10:17;;;;;;;14.05;2.65;;;;;;;;;;4922397;29;20028;-79
2023/03/24 05:12:43;;;;;;;9.05;1.67;;;;;;;;;;4922548;29;20020;-79
2023/03/24 05:15:12;;;;;;;6.88;1.80;;;;;;;;;;4922200;29;20636;-80
2023/03/24 05:17:39;;;;;;;10.43;2.05;;;;;;;;;;4922278;29;20064;-79
2023/03/24 05:20:11;;;;;;;12.27;1.73;;;;;;;;;;4921922;29;20111;-79
2023/03/24 05:22:38;;;;;;;12.45;2.22;;;;;;;;;;4922183;29;20012;-79
2023/03/24 05:25:04;;;;;;;11.80;1.90;;;;;;;;;;4921759;29;20380;-79
2023/03/24 05:27:30;;;;;;;12.52;1.50;;;;;;;;;;4922732;29;20039;-80
2023/03/24 05:29:56;;;;;;;12.15;2.17;;;;;;;;;;4921906;29;20031;-79
2023/03/24 05:32:35;;;;;;;11.55;1.63;;;;;;;;;;4921950;29;20403;-79
2023/03/24 05:35:01;;;;;;;10.02;2.08;;;;;;;;;;4928129;29;20560;-80
2023/03/24 05:37:27;;;;;;;11.38;1.85;;;;;;;;;;4921475;29;20080;-79
2023/03/24 05:39:53;;;;;;;10.27;1.83;;;;;;;;;;4923746;29;20451;-80
2023/03/24 05:42:19;;;;;;;12.88;2.03;;;;;;;;;;4952114;29;20502;-80
2023/03/24 05:44:46;;;;;;;9.77;1.90;;;;;;;;;;4962808;28;20478;-79
2023/03/24 05:47:14;;;;;;;10.55;1.98;;;;;;;;;;4959858;29;20186;-80
2023/03/24 05:49:41;;;;;;;5.88;1.58;;;;;;;;;;4963544;29;20050;-80
2023/03/24 05:52:08;;;;;;;13.95;2.15;;;;;;;;;;4960439;29;20020;-79
2023/03/24 05:54:34;;;;;;;10.73;1.55;;;;;;;;;;4960356;29;20042;-79
2023/03/24 05:57:00;;;;;;;10.75;1.83;;;;;;;;;;4961115;29;20101;-80
2023/03/24 05:59:26;;;;;;;11.18;1.95;;;;;;;;;;4966368;29;20869;-79
2023/03/24 06:01:55;;;;;;;8.52;1.40;;;;;;;;;;4962578;29;20497;-79
2023/03/24 06:04:21;;;;;;;8.43;1.55;;;;;;;;;;4962715;29;20027;-80
2023/03/24 06:06:47;;;;;;;13.30;2.03;;;;;;;;;;4964080;29;20027;-80
2023/03/24 06:09:15;;;;;;;9.52;2.10;;;;;;;;;;4960229;29;20164;-80
2023/03/24 06:11:41;;;;;;;10.45;1.85;;;;;;;;;;4943613;29;20363;-80
2023/03/24 06:14:14;;;;;;;10.52;1.95;;;;;;;;;;4963092;29;20074;-80
2023/03/24 06:16:42;;;;;;;19.23;2.28;;;;;;;;;;4961360;29;20058;-80
2023/03/24 06:19:08;;;;;;;11.32;2.22;;;;;;;;;;4961673;29;20034;-80
2023/03/24 06:21:34;;;;;;;13.70;1.95;;;;;;;;;;4947067;28;20027;-80
2023/03/24 06:24:00;;;;;;;13.63;2.10;;;;;;;;;;4962761;29;20042;-80
2023/03/24 06:26:29;;;;;;;11.88;1.75;;;;;;;;;;4944166;29;20024;-80
2023/03/24 06:28:55;;;;;;;18.83;2.92;;;;;;;;;;4965931;29;20382;-80
2023/03/24 06:31:22;;;;;;;7.88;1.50;;;;;;;;;;4943342;29;20470;-79
2023/03/24 06:33:49;;;;;;;9.07;1.80;;;;;;;;;;4963691;29;20019;-80
2023/03/24 06:36:15;;;;;;;13.60;2.60;;;;;;;;;;4963210;29;20086;-80
2023/03/24 06:38:41;;;;;;;14.13;2.13;;;;;;;;;;4961963;29;20028;-80
2023/03/24 06:41:08;;;;;;;11.65;2.83;;;;;;;;;;4961069;29;20111;-80
2023/03/24 06:43:34;;;;;;;16.30;1.83;;;;;;;;;;4944338;29;20437;-80
2023/03/24 06:46:00;;;;;;;10.45;1.90;;;;;;;;;;4945423;29;20085;-80
2023/03/24 06:48:26;;;;;;;15.23;2.85;;;;;;;;;;4963211;29;20070;-80
2023/03/24 06:50:52;;;;;;;16.08;2.03;;;;;;;;;;4959644;29;20035;-80
2023/03/24 06:53:27;;;;;;;16.10;2.47;;;;;;;;;;4958272;29;20030;-80
2023/03/24 06:56:17;;;;;;;16.42;2.88;;;;;;;;;;4959894;28;20067;-80
2023/03/24 06:58:53;;;;;;;18.27;3.65;;;;;;;;;;4962956;29;20055;-80
2023/03/24 07:01:19;;;;;;;9.65;2.00;;;;;;;;;;4966058;29;20716;-80
2023/03/24 07:03:45;;;;;;;16.83;2.33;;;;;;;;;;4963208;29;20023;-80
2023/03/24 07:06:11;;;;;;;8.27;1.85;;;;;;;;;;4966670;29;20035;-80
2023/03/24 07:08:37;;;;;;;21.05;3.58;;;;;;;;;;4961067;29;20467;-79
2023/03/24 07:11:05;;;;;;;16.23;2.30;;;;;;;;;;4944576;28;20015;-78
2023/03/24 07:13:31;;;;;;;15.13;1.85;;;;;;;;;;4963111;28;20030;-79
2023/03/24 07:16:02;;;;;;;11.90;2.00;;;;;;;;;;4943260;29;20035;-79
2023/03/24 07:18:28;;;;;;;14.40;2.03;;;;;;;;;;4961369;29;20042;-79
2023/03/24 07:20:54;;;;;;;19.27;4.05;;;;;;;;;;4961217;29;20362;-79
2023/03/24 07:23:20;;;;;;;13.70;2.83;;;;;;;;;;4961073;29;20088;-79
2023/03/24 07:25:46;;;;;;;12.98;2.60;;;;;;;;;;4961636;29;20500;-79
2023/03/24 07:28:12;;;;;;;13.82;3.53;;;;;;;;;;4963090;29;20293;-79
2023/03/24 07:30:38;;;;;;;14.50;1.98;;;;;;;;;;4960789;29;20027;-79
2023/03/24 07:33:05;;;;;;;10.80;2.00;;;;;;;;;;4960972;29;20027;-79
2023/03/24 07:35:31;;;;;;;13.10;2.47;;;;;;;;;;4961209;29;20037;-79
2023/03/24 07:38:01;;;;;;;12.23;2.35;;;;;;;;;;4960773;29;20082;-79
2023/03/24 07:40:27;;;;;;;10.70;2.30;;;;;;;;;;4960674;29;20377;-79
2023/03/24 07:42:53;;;;;;;13.95;2.10;;;;;;;;;;4960703;29;20055;-79
2023/03/24 07:45:32;;;;;;;9.77;2.13;;;;;;;;;;4960072;29;20042;-79
2023/03/24 07:48:03;;;;;;;13.77;2.50;;;;;;;;;;4961769;29;20120;-81
2023/03/24 07:50:29;;;;;;;16.23;2.75;;;;;;;;;;4965863;29;20034;-80
2023/03/24 07:52:55;;;;;;;16.00;2.63;;;;;;;;;;4960702;29;20363;-79
2023/03/24 07:55:21;;;;;;;9.95;2.03;;;;;;;;;;4960209;29;20742;-78
2023/03/24 07:57:48;;;;;;;9.40;2.70;;;;;;;;;;4941275;29;20031;-78
2023/03/24 08:00:16;;;;;;;15.27;2.70;;;;;;;;;;4958141;29;20058;-78
2023/03/24 08:02:43;;;;;;;18.70;2.75;;;;;;;;;;4958674;29;20023;-78
2023/03/24 08:05:12;;;;;;;12.95;2.20;;;;;;;;;;4957752;29;20027;-78
2023/03/24 08:07:41;;;;;;;14.87;2.90;;;;;;;;;;4958260;28;20019;-78
2023/03/24 08:10:07;;;;;;;15.60;2.85;;;;;;;;;;4959799;29;20484;-78
2023/03/24 08:12:33;;;;;;;14.15;2.67;;;;;;;;;;4959131;29;20067;-79
2023/03/24 08:14:59;;;;;;;11.50;2.45;;;;;;;;;;4961242;29;20059;-79
2023/03/24 08:17:25;;;;;;;14.02;2.30;;;;;;;;;;4959208;29;20062;-78
2023/03/24 08:19:51;;;;;;;15.90;2.42;;;;;;;;;;4959424;29;20035;-78
2023/03/24 08:22:17;;;;;;;17.83;2.80;;;;;;;;;;4960374;29;20023;-79
2023/03/24 08:24:43;;;;;;;14.57;2.83;;;;;;;;;;4943207;29;20039;-80
2023/03/24 08:27:11;;;;;;;18.67;3.25;;;;;;;;;;4960175;29;20031;-79
2023/03/24 08:29:37;;;;;;;14.40;3.05;;;;;;;;;;4959785;29;20033;-79
2023/03/24 08:32:04;;;;;;;13.10;3.28;;;;;;;;;;4959259;29;20107;-79
2023/03/24 08:34:30;;;;;;;12.70;2.22;;;;;;;;;;4926708;29;20035;-80
2023/03/24 08:36:56;;;;;;;13.77;2.58;;;;;;;;;;4940757;29;20106;-80
2023/03/24 08:39:23;;;;;;;14.40;2.72;;;;;;;;;;4952337;29;20066;-80
2023/03/24 08:41:49;;;;;;;12.55;2.90;;;;;;;;;;4953581;29;20543;-80
2023/03/24 08:44:15;;;;;;;11.55;2.70;;;;;;;;;;4950905;29;20058;-79
2023/03/24 08:46:41;;;;;;;13.82;2.63;;;;;;;;;;4954688;29;20019;-80
2023/03/24 08:49:08;;;;;;;13.25;2.47;;;;;;;;;;4959199;29;20536;-79
2023/03/24 08:51:36;;;;;;;12.90;2.67;;;;;;;;;;4959969;29;20031;-79
2023/03/24 08:54:02;;;;;;;13.98;3.47;;;;;;;;;;4959575;29;20031;-79
2023/03/24 08:56:28;;;;;;;9.32;2.00;;;;;;;;;;4965266;28;20031;-79
2023/03/24 08:58:54;;;;;;;11.63;1.83;;;;;;;;;;4958196;29;20027;-79
2023/03/24 09:01:21;;;;;;;13.35;2.63;;;;;;;;;;4959366;29;20439;-79
2023/03/24 09:03:48;;;;;;;9.85;2.28;;;;;;;;;;4958880;29;20576;-79
2023/03/24 09:06:14;;;;;;;15.45;2.53;;;;;;;;;;4959536;29;20045;-79
2023/03/24 09:08:41;;;;;;;11.18;2.47;;;;;;;;;;4959647;29;20030;-80
2023/03/24 09:11:15;;;;;;;12.23;2.50;;;;;;;;;;4959957;29;20501;-80
2023/03/24 09:13:41;;;;;;;12.63;2.35;;;;;;;;;;4951611;28;20038;-81
2023/03/24 09:16:15;;;;;;;10.07;2.30;;;;;;;;;;4953969;28;20035;-80
2023/03/24 09:18:41;;;;;;;10.27;2.10;;;;;;;;;;4958301;28;20031;-80
2023/03/24 09:21:07;;;;;;;15.95;2.72;;;;;;;;;;4957351;29;20026;-80
2023/03/24 09:23:33;;;;;;;12.68;2.65;;;;;;;;;;4950029;29;20466;-81
2023/03/24 09:26:00;;;;;;;13.82;2.33;;;;;;;;;;4956884;29;20081;-81
2023/03/24 09:28:26;;;;;;;11.40;1.90;;;;;;;;;;4948313;29;20016;-82
2023/03/24 09:30:56;;;;;;;11.70;2.00;;;;;;;;;;4956098;29;20074;-81
2023/03/24 09:33:23;;;;;;;;;;;;;;;;;;4958579;29;20038;-81
2023/03/24 09:35:53;;;;;;;10.55;2.25;;;;;;;;;;4957348;28;19906;-81
2023/03/24 09:38:20;;;;;;;8.50;2.10;;;;;;;;;;4957687;29;20058;-81
2023/03/24 09:40:48;;;;;;;13.30;2.22;;;;;;;;;;4958989;29;20026;-82
2023/03/24 09:43:27;;;;;;;13.60;2.15;;;;;;;;;;4957037;29;20437;-81
2023/03/24 09:45:54;;;;;;;12.30;2.30;;;;;;;;;;4952496;29;20050;-82
2023/03/24 09:48:28;;;;;;;11.15;1.83;;;;;;;;;;4957965;29;20023;-81
2023/03/24 09:51:00;;;;;;;13.82;2.30;;;;;;;;;;4959332;29;20078;-81
2023/03/24 09:53:26;;;;;;;12.23;2.60;;;;;;;;;;4957361;29;20025;-82
2023/03/24 09:55:52;;;;;;;12.55;2.33;;;;;;;;;;4957743;29;20059;-83
2023/03/24 09:58:19;;;;;;;13.10;1.92;;;;;;;;;;4955568;29;20027;-82
2023/03/24 10:00:56;;;;;;;13.45;2.22;;;;;;;;;;4959672;29;20055;-82
2023/03/24 10:03:22;;;;;;;14.15;2.55;;;;;;;;;;4961407;29;20026;-82
2023/03/24 10:05:54;;;;;;;15.40;2.83;;;;;;;;;;4960014;29;20035;-82
2023/03/24 10:08:30;;;;;;;12.32;2.30;;;;;;;;;;4960517;29;20098;-82
2023/03/24 10:11:15;;;;;;;12.15;2.58;;;;;;;;;;4960672;29;20031;-81
2023/03/24 10:13:50;;;;;;;16.02;2.95;;;;;;;;;;4958486;29;20023;-82
2023/03/24 10:16:19;;;;;;;14.85;2.58;;;;;;;;;;4959502;29;20067;-82
2023/03/24 10:19:15;;;;;;;9.95;2.40;;;;;;;;;;4944489;29;20065;-82
2023/03/24 10:21:47;;;;;;;14.38;3.03;;;;;;;;;;4942694;29;20039;-83
2023/03/24 10:24:34;;;;;;;15.35;2.58;;;;;;;;;;4956141;29;20039;-83
2023/03/24 10:27:15;;;;;;;11.02;2.30;;;;;;;;;;4956131;29;20027;-80
2023/03/24 10:29:42;;;;;;;11.10;2.35;;;;;;;;;;4919611;29;20095;-80
2023/03/24 10:32:20;;;;;;;15.73;2.63;;;;;;;;;;4940961;29;20023;-80
2023/03/24 10:34:49;;;;;;;16.33;2.13;;;;;;;;;;4956429;29;20050;-80
2023/03/24 10:37:16;;;;;;;14.27;2.50;;;;;;;;;;4956174;29;20031;-80
2023/03/24 10:40:08;;;;;;;11.55;3.05;;;;;;;;;;4956599;29;20025;-80
2023/03/24 10:42:36;;;;;;;11.27;2.58;;;;;;;;;;4965040;29;20131;-80
2023/03/24 10:45:14;;;;;;;15.98;2.92;;;;;;;;;;4958539;29;20031;-80
2023/03/24 10:47:40;;;;;;;11.35;2.25;;;;;;;;;;4955912;29;20052;-80
2023/03/24 10:50:07;;;;;;;12.60;2.45;;;;;;;;;;4938553;29;20027;-82
2023/03/24 10:52:40;;;;;;;10.25;2.05;;;;;;;;;;4949305;29;20506;-82
2023/03/24 10:55:06;;;;;;;14.77;2.67;;;;;;;;;;4955817;29;20035;-80
2023/03/24 10:57:33;;;;;;;13.02;2.47;;;;;;;;;;4942106;29;20046;-80
2023/03/24 11:00:13;;;;;;;12.00;2.30;;;;;;;;;;4942879;29;20035;-80
2023/03/24 11:02:41;;;;;;;17.65;3.70;;;;;;;;;;4960791;28;20051;-80
2023/03/24 11:05:19;;;;;;;13.13;2.40;;;;;;;;;;4955447;29;20094;-79
2023/03/24 11:07:46;;;;;;;12.27;2.22;;;;;;;;;;4943419;29;20032;-79
2023/03/24 11:10:23;;;;;;;11.68;2.30;;;;;;;;;;4942462;29;20023;-80
2023/03/24 11:12:56;;;;;;;14.77;2.30;;;;;;;;;;4955926;28;20374;-80
2023/03/24 11:15:33;;;;;;;13.07;2.13;;;;;;;;;;4962399;28;20023;-80
2023/03/24 11:18:00;;;;;;;13.70;2.22;;;;;;;;;;4934079;29;20094;-80
2023/03/24 11:21:02;;;;;;;14.27;2.42;;;;;;;;;;4955433;29;20031;-80
2023/03/24 11:23:44;;;;;;;11.25;1.83;;;;;;;;;;4954962;29;20027;-80
2023/03/24 11:26:16;;;;;;;15.07;1.95;;;;;;;;;;4955270;29;20026;-82
2023/03/24 11:28:47;;;;;;;12.07;2.20;;;;;;;;;;4955058;29;20034;-82
2023/03/24 11:31:23;;;;;;;20.10;2.75;;;;;;;;;;4954850;29;20037;-82
2023/03/24 11:34:00;;;;;;;10.70;2.08;;;;;;;;;;4956034;29;20027;-82
2023/03/24 11:36:29;;;;;;;12.65;2.40;;;;;;;;;;4940801;28;20035;-82
2023/03/24 11:38:59;;;;;;;10.73;2.47;;;;;;;;;;4951986;29;20034;-82
2023/03/24 11:41:25;;;;;;;11.40;2.47;;;;;;;;;;4961633;28;20035;-82
2023/03/24 11:44:07;;;;;;;7.65;1.48;;;;;;;;;;4965719;29;20098;-82
2023/03/24 11:46:34;;;;;;;12.40;1.88;;;;;;;;;;4947437;29;20118;-82
2023/03/24 11:49:01;;;;;;;12.68;2.17;;;;;;;;;;4946646;29;20035;-82
2023/03/24 11:51:35;;;;;;;14.00;2.03;;;;;;;;;;4945260;29;20058;-82
2023/03/24 11:54:02;;;;;;;16.60;2.83;;;;;;;;;;4947392;29;20070;-82
2023/03/24 11:56:38;;;;;;;8.82;1.67;;;;;;;;;;4959686;29;20019;-82
2023/03/24 11:59:13;;;;;;;10.27;1.63;;;;;;;;;;4941924;29;20402;-82
2023/03/24 12:01:44;;;;;;;9.43;1.77;;;;;;;;;;4959104;29;20034;-82
2023/03/24 12:07:38;;;;;;;11.18;1.80;;;;;;;;;;4951423;29;20115;-82
2023/03/24 12:10:07;;;;;;;14.18;1.85;;;;;;;;;;4957959;29;20039;-82
2023/03/24 12:12:44;;;;;;;13.73;2.00;;;;;;;;;;4959852;29;20035;-81
2023/03/24 12:15:13;;;;;;;10.98;1.70;;;;;;;;;;4958894;29;20034;-82
2023/03/24 12:17:40;;;;;;;13.45;2.15;;;;;;;;;;4960170;29;20035;-82
2023/03/24 12:20:07;;;;;;;7.93;1.75;;;;;;;;;;4964296;29;20098;-81
2023/03/24 12:22:51;;;;;;;10.98;1.60;;;;;;;;;;4958649;29;20031;-80
2023/03/24 12:25:21;;;;;;;11.05;1.60;;;;;;;;;;4958359;29;20035;-81
2023/03/24 12:27:47;;;;;;;;;;;;;;;;;;4954713;29;20438;-81
2023/03/24 12:30:36;;;;;;;7.60;1.52;;;;;;;;;;4939845;29;19910;-81
2023/03/24 12:33:22;;;;;;;10.53;1.77;;;;;;;;;;4954763;29;20039;-81
2023/03/24 12:35:48;;;;;;;11.68;2.30;;;;;;;;;;4958733;29;20085;-82
2023/03/24 12:38:26;;;;;;;16.27;2.30;;;;;;;;;;4958176;29;20462;-82
2023/03/24 12:41:12;;;;;;;11.38;2.17;;;;;;;;;;4958210;29;20439;-81
2023/03/24 12:44:00;;;;;;;12.48;2.13;;;;;;;;;;4922205;29;20066;-83
2023/03/24 12:46:31;;;;;;;11.02;1.95;;;;;;;;;;4909235;29;20395;-83
2023/03/24 12:49:14;;;;;;;11.32;1.92;;;;;;;;;;4918290;29;20039;-82
2023/03/24 12:51:41;;;;;;;14.90;1.65;;;;;;;;;;4919864;29;20524;-82
2023/03/24 12:54:13;;;;;;;9.75;1.67;;;;;;;;;;4918681;29;20047;-82
2023/03/24 12:57:00;;;;;;;12.70;1.83;;;;;;;;;;4919962;29;20084;-82
2023/03/24 12:59:36;;;;;;;12.82;1.80;;;;;;;;;;4920132;29;20036;-81
2023/03/24 13:02:09;;;;;;;11.50;1.77;;;;;;;;;;4919523;29;20032;-81
2023/03/24 13:04:36;;;;;;;11.50;1.70;;;;;;;;;;4923538;29;20108;-81
2023/03/24 13:07:05;;;;;;;10.70;2.08;;;;;;;;;;4919585;29;20029;-81
2023/03/24 13:09:39;;;;;;;17.23;2.15;;;;;;;;;;4919507;29;20048;-81
2023/03/24 13:12:25;;;;;;;13.93;1.70;;;;;;;;;;4914889;29;20043;-81
2023/03/24 13:14:51;;;;;;;6.70;1.95;;;;;;;;;;4917257;29;20039;-81
2023/03/24 13:17:20;;;;;;;9.88;1.90;;;;;;;;;;4911172;29;20036;-81
2023/03/24 13:19:47;;;;;;;13.75;2.00;;;;;;;;;;4918255;29;20031;-81
2023/03/24 13:22:17;;;;;;;13.35;2.03;;;;;;;;;;4919496;29;20461;-80
2023/03/24 13:24:45;;;;;;;10.98;1.67;;;;;;;;;;4922142;29;20036;-82
2023/03/24 13:27:15;;;;;;;11.95;2.63;;;;;;;;;;4920817;29;20035;-81
2023/03/24 13:29:41;;;;;;;;;;;;;;;;;;4910744;29;20455;-81
2023/03/24 13:32:25;;;;;;;12.70;1.95;;;;;;;;;;4922364;29;19907;-82
2023/03/24 13:35:01;;;;;;;10.20;2.05;;;;;;;;;;4919209;29;20419;-82
2023/03/24 13:37:36;;;;;;;13.50;2.00;;;;;;;;;;4919206;29;20055;-81
2023/03/24 13:40:06;;;;;;;10.63;1.88;;;;;;;;;;4912223;29;20152;-81
2023/03/24 13:51:47;;;;;;;14.00;2.47;;;;;;;;;;4919047;29;20088;-81
2023/03/24 13:54:13;;;;;;;;;;;;;;;;;;4919195;29;20036;-82
2023/03/24 13:56:41;;;;;;;12.63;1.50;;;;;;;;;;4910900;29;19958;-81
2023/03/24 13:59:18;;;;;;;10.40;1.65;;;;;;;;;;4918935;29;20379;-82
2023/03/24 14:01:44;;;;;;;12.23;2.25;;;;;;;;;;4930958;29;20031;-82
2023/03/24 14:04:13;;;;;;;9.10;1.83;;;;;;;;;;4918750;29;20024;-82
2023/03/24 14:06:48;;;;;;;11.13;2.13;;;;;;;;;;4919239;29;20386;-82
2023/03/24 14:09:22;;;;;;;8.75;2.28;;;;;;;;;;4920873;29;20103;-82
2023/03/24 14:11:50;;;;;;;10.32;2.20;;;;;;;;;;4918420;29;20087;-82
2023/03/24 14:14:21;;;;;;;12.60;1.52;;;;;;;;;;4906488;29;20056;-80
2023/03/24 14:17:11;;;;;;;9.75;1.63;;;;;;;;;;4899588;29;20115;-81
2023/03/24 14:19:40;;;;;;;;;;;;;;;;;;4912982;29;20049;-81
2023/03/24 14:22:32;;;;;;;11.80;1.67;;;;;;;;;;4909644;29;20281;-81
2023/03/24 14:28:19;;;;;;;11.43;1.70;;;;;;;;;;4918220;29;20099;-80
2023/03/24 14:31:02;;;;;;;12.63;1.55;;;;;;;;;;4917940;29;20032;-81
2023/03/24 14:33:28;;;;;;;7.32;1.70;;;;;;;;;;4918754;29;20387;-80
2023/03/24 14:36:03;;;;;;;8.63;2.40;;;;;;;;;;4918016;29;20032;-80
2023/03/24 14:38:34;;;;;;;7.97;1.85;;;;;;;;;;4918673;29;20020;-81
2023/03/24 14:41:05;;;;;;;8.80;1.60;;;;;;;;;;4917762;29;20028;-81
2023/03/24 14:43:40;;;;;;;11.55;1.85;;;;;;;;;;4953116;29;20055;-80
2023/03/24 14:46:21;;;;;;;12.32;1.98;;;;;;;;;;4956546;29;20071;-80
2023/03/24 14:48:56;;;;;;;9.38;1.25;;;;;;;;;;4957848;29;20161;-80
2023/03/24 14:51:35;;;;;;;11.38;2.03;;;;;;;;;;4956974;29;20422;-80
2023/03/24 14:54:01;;;;;;;11.30;1.98;;;;;;;;;;4945376;29;20074;-81
2023/03/24 14:56:31;;;;;;;16.63;1.90;;;;;;;;;;4957237;29;20031;-78
2023/03/24 14:58:57;;;;;;;;;;;;;;;;;;4956794;29;20027;-79
2023/03/24 15:01:29;;;;;;;9.90;1.70;;;;;;;;;;4956829;29;19997;-79
2023/03/24 15:03:59;;;;;;;10.25;1.80;;;;;;;;;;4943909;29;20382;-79
2023/03/24 15:06:25;;;;;;;;;;;;;;;;;;4956196;28;20058;-79
2023/03/24 15:08:52;;;;;;;12.18;2.67;;;;;;;;;;4957301;29;20338;-78
2023/03/24 15:11:29;;;;;;;11.48;1.50;;;;;;;;;;4955473;29;20500;-79
2023/03/24 15:13:56;;;;;;;10.07;1.80;;;;;;;;;;4927373;29;20123;-80